Time;durP1;ratioP1;P1;durP2;ratioP2;P2;SDS_P1;SDS_P2;PMS_P1;PMS_P2;Temp;Humidity;BMP_temperature;BMP_pressure;BME280_temperature;BME280_humidity;BME280_pressure;Samples;Min_cycle;Max_cycle;Signal;HPM_P1;HPM_P2
2023/03/26 00:01:20;;;;;;;19.85;13.40;;;;;;;7.27;90.13;97913.19;7340009;19;20021;-70
2023/03/26 00:03:45;;;;;;;21.70;14.25;;;;;;;7.25;90.18;97912.47;7342403;19;20073;-70
2023/03/26 00:06:12;;;;;;;20.08;13.05;;;;;;;7.23;90.26;97907.31;7342464;19;20018;-70
2023/03/26 00:08:39;;;;;;;20.33;14.07;;;;;;;7.19;89.90;97910.38;7339627;19;20016;-69
2023/03/26 00:11:06;;;;;;;22.48;14.95;;;;;;;7.18;90.22;97911.34;7339880;19;20086;-71
2023/03/26 00:13:32;;;;;;;24.75;13.50;;;;;;;7.15;90.24;97906.28;7340675;19;20100;-72
2023/03/26 00:15:58;;;;;;;20.48;14.20;;;;;;;7.14;90.35;97905.44;7339936;19;20026;-69
2023/03/26 00:18:29;;;;;;;20.88;13.68;;;;;;;7.09;90.28;97904.19;7342429;19;20146;-71
2023/03/26 00:20:54;;;;;;;22.73;14.98;;;;;;;7.05;90.34;97902.75;7343543;19;20019;-71
2023/03/26 00:23:18;;;;;;;24.42;15.13;;;;;;;7.01;90.70;97915.41;7337969;19;20021;-72
2023/03/26 00:25:44;;;;;;;23.90;14.50;;;;;;;7.04;90.79;97920.44;7337793;19;20026;-73
2023/03/26 00:28:09;;;;;;;26.27;13.38;;;;;;;7.04;90.56;97927.56;7337687;19;20111;-70
2023/03/26 00:30:40;;;;;;;23.88;13.25;;;;;;;7.07;90.33;97916.72;7339756;19;20014;-70
2023/03/26 00:33:06;;;;;;;22.65;13.70;;;;;;;7.05;90.23;97908.88;7336870;19;20022;-68
2023/03/26 00:35:31;;;;;;;24.73;15.98;;;;;;;7.01;90.29;97903.97;7337165;19;20014;-71
2023/03/26 00:37:57;;;;;;;24.38;13.98;;;;;;;7.01;90.13;97917.22;7340902;19;19999;-73
2023/03/26 00:40:22;;;;;;;23.45;13.77;;;;;;;6.95;90.18;97912.44;7341079;19;20003;-71
2023/03/26 00:42:47;;;;;;;25.00;14.57;;;;;;;6.95;90.56;97915.94;7338914;19;20084;-73
2023/03/26 00:45:11;;;;;;;26.52;15.82;;;;;;;6.98;90.74;97906.91;7343872;19;20027;-70
2023/03/26 00:47:36;;;;;;;28.92;15.55;;;;;;;7.01;90.73;97903.97;7344475;19;20022;-69
2023/03/26 00:50:03;;;;;;;30.83;16.27;;;;;;;7.05;90.89;97894.78;7347480;19;20010;-71
2023/03/26 00:52:28;;;;;;;54.38;17.38;;;;;;;7.06;90.63;97899.97;7347686;19;20355;-70
2023/03/26 00:54:55;;;;;;;30.65;17.08;;;;;;;7.01;90.73;97885.41;7347567;19;20358;-67
2023/03/26 00:57:21;;;;;;;61.55;16.23;;;;;;;7.01;90.41;97888.06;7346577;19;20007;-67
2023/03/26 00:59:46;;;;;;;50.10;17.48;;;;;;;6.96;90.13;97879.69;7346287;19;20017;-70
2023/03/26 01:02:15;;;;;;;62.58;17.83;;;;;;;6.86;90.25;97877.81;7347890;19;20007;-72
2023/03/26 01:04:44;;;;;;;44.45;19.08;;;;;;;6.85;90.58;97885.91;7347635;19;20086;-71
2023/03/26 01:07:12;;;;;;;35.15;18.23;;;;;;;6.88;91.11;97869.75;7343321;19;20010;-72
2023/03/26 01:09:44;;;;;;;37.42;16.55;;;;;;;6.95;91.17;97876.19;7344667;19;20217;-68
2023/03/26 01:12:14;;;;;;;56.10;19.02;;;;;;;7.02;91.45;97869.41;7343241;19;20022;-66
2023/03/26 01:14:39;;;;;;;31.80;16.40;;;;;;;6.99;91.12;97876.78;7346819;19;20023;-70
2023/03/26 01:17:06;;;;;;;41.65;19.00;;;;;;;6.97;91.35;97881.38;7345155;19;20024;-68
2023/03/26 01:19:43;;;;;;;53.35;18.58;;;;;;;7.05;91.53;97890.34;7344399;19;20027;-74
2023/03/26 01:22:10;;;;;;;44.40;17.25;;;;;;;7.05;91.48;97885.03;7342562;19;20042;-74
2023/03/26 01:24:40;;;;;;;31.27;16.40;;;;;;;7.09;91.40;97883.81;7345260;19;20051;-73
2023/03/26 01:27:16;;;;;;;31.08;16.17;;;;;;;7.16;91.10;97878.81;7342250;19;20394;-73
2023/03/26 01:29:53;;;;;;;60.10;18.45;;;;;;;7.22;91.08;97880.97;7346729;19;20018;-71
2023/03/26 01:32:37;;;;;;;29.63;15.52;;;;;;;7.16;91.02;97884.13;7341808;19;20022;-73
2023/03/26 01:35:11;;;;;;;28.65;15.25;;;;;;;7.27;91.12;97878.75;7341294;19;20121;-74
2023/03/26 01:37:41;;;;;;;27.20;15.03;;;;;;;7.29;90.93;97876.81;7346484;19;20107;-74
2023/03/26 01:40:42;;;;;;;26.52;15.63;;;;;;;7.38;90.83;97877.81;7350128;19;20401;-74
2023/03/26 01:43:19;;;;;;;29.33;16.52;;;;;;;7.35;90.56;97875.41;7363533;19;20017;-73
2023/03/26 01:45:48;;;;;;;27.08;14.93;;;;;;;7.33;90.62;97875.56;7356244;19;20032;-72
2023/03/26 01:48:13;;;;;;;25.42;14.35;;;;;;;7.28;90.33;97857.41;7355807;19;20054;-75
2023/03/26 01:50:38;;;;;;;29.67;15.30;;;;;;;7.33;90.15;97864.13;7349017;19;20032;-76
2023/03/26 01:53:04;;;;;;;29.60;15.90;;;;;;;7.34;90.31;97853.38;7345871;19;20007;-73
2023/03/26 01:56:09;;;;;;;21.08;13.50;;;;;;;7.45;90.20;97855.13;7344118;19;20021;-74
2023/03/26 01:58:43;;;;;;;24.15;13.57;;;;;;;7.39;90.03;97858.28;7342467;19;20478;-70
2023/03/26 02:01:26;;;;;;;22.58;13.20;;;;;;;7.40;89.84;97863.47;7344292;19;20342;-71
2023/03/26 02:04:21;;;;;;;28.63;14.93;;;;;;;7.43;89.68;97852.59;7343399;19;20066;-70
2023/03/26 02:07:21;;;;;;;20.50;11.45;;;;;;;7.42;89.70;97842.13;7343181;19;20014;-71
2023/03/26 02:10:01;;;;;;;24.58;13.68;;;;;;;7.31;89.41;97843.06;7344434;19;20023;-72
2023/03/26 02:12:28;;;;;;;20.60;11.73;;;;;;;7.30;89.43;97846.69;7343964;19;20011;-71
2023/03/26 02:14:52;;;;;;;20.30;13.15;;;;;;;7.28;89.40;97835.38;7341610;19;20480;-72
2023/03/26 02:17:22;;;;;;;20.10;11.98;;;;;;;7.24;89.21;97834.78;7340628;19;20021;-72
2023/03/26 02:19:47;;;;;;;23.20;13.73;;;;;;;7.24;89.30;97842.72;7346234;19;20356;-70
2023/03/26 02:22:14;;;;;;;20.23;13.07;;;;;;;7.24;89.17;97844.53;7341543;19;20486;-72
2023/03/26 02:24:42;;;;;;;19.88;12.23;;;;;;;7.23;89.34;97846.34;7343395;19;20015;-71
2023/03/26 02:27:08;;;;;;;22.38;12.77;;;;;;;7.23;89.21;97845.50;7342143;19;20014;-71
2023/03/26 02:29:36;;;;;;;20.15;11.65;;;;;;;7.22;89.15;97852.63;7341371;19;20018;-71
2023/03/26 02:32:05;;;;;;;19.35;12.75;;;;;;;7.23;89.01;97848.16;7341458;19;20006;-78
2023/03/26 02:34:30;;;;;;;21.80;11.93;;;;;;;7.21;89.17;97848.31;7343930;19;20018;-74
2023/03/26 02:36:56;;;;;;;18.95;11.43;;;;;;;7.19;89.07;97842.31;7341178;19;20017;-69
2023/03/26 02:39:23;;;;;;;16.60;10.38;;;;;;;7.23;89.00;97845.50;7339529;19;20011;-68
2023/03/26 02:41:55;;;;;;;17.85;12.00;;;;;;;7.23;88.86;97841.06;7340765;19;20019;-69
2023/03/26 02:44:23;;;;;;;22.42;13.18;;;;;;;7.26;88.90;97839.97;7340081;19;20442;-72
2023/03/26 02:47:13;;;;;;;22.63;12.63;;;;;;;7.24;88.74;97841.91;7342048;19;20037;-68
2023/03/26 02:49:48;;;;;;;20.42;12.07;;;;;;;7.25;88.68;97836.47;7347492;19;20038;-68
2023/03/26 02:52:21;;;;;;;19.60;11.40;;;;;;;7.21;88.38;97827.13;7342730;19;20035;-67
2023/03/26 02:54:48;;;;;;;19.77;12.57;;;;;;;7.21;88.11;97827.13;7343523;19;20095;-71
2023/03/26 02:57:21;;;;;;;14.80;10.32;;;;;;;7.21;88.29;97829.78;7343088;19;20029;-68
2023/03/26 03:00:12;;;;;;;18.80;11.50;;;;;;;7.21;88.17;97823.63;7345206;19;20039;-69
2023/03/26 03:02:46;;;;;;;17.80;10.98;;;;;;;7.23;88.30;97829.59;7346201;19;20007;-64
2023/03/26 03:05:30;;;;;;;15.70;10.55;;;;;;;7.23;87.99;97819.84;7344542;19;20046;-67
2023/03/26 03:08:13;;;;;;;17.08;10.80;;;;;;;7.25;88.00;97811.78;7341253;19;20018;-66
2023/03/26 03:11:02;;;;;;;22.25;11.27;;;;;;;7.28;87.95;97814.16;7340605;19;20018;-65
2023/03/26 03:13:48;;;;;;;17.92;10.98;;;;;;;7.25;87.98;97817.91;7340369;19;20007;-65
2023/03/26 03:16:32;;;;;;;20.75;13.90;;;;;;;7.28;88.19;97816.81;7339060;19;20042;-65
2023/03/26 03:19:02;;;;;;;21.00;12.77;;;;;;;7.28;88.20;97807.06;7340172;19;20150;-75
2023/03/26 03:21:37;;;;;;;18.30;12.48;;;;;;;7.28;88.21;97812.34;7343282;19;20018;-73
2023/03/26 03:24:02;;;;;;;21.42;13.52;;;;;;;7.31;87.91;97803.31;7342216;19;20026;-72
2023/03/26 03:26:32;;;;;;;21.77;13.63;;;;;;;7.34;88.25;97808.31;7341235;19;20339;-73
2023/03/26 03:29:09;;;;;;;21.70;13.55;;;;;;;7.38;88.16;97801.78;7341137;19;20337;-72
2023/03/26 03:31:34;;;;;;;23.90;13.65;;;;;;;7.39;88.20;97799.97;7340608;19;20360;-69
2023/03/26 03:34:02;;;;;;;21.50;13.40;;;;;;;7.40;88.07;97783.94;7339534;19;20030;-69
2023/03/26 03:36:32;;;;;;;21.98;14.10;;;;;;;7.42;88.17;97782.00;7338138;19;20014;-70
2023/03/26 03:39:05;;;;;;;22.60;14.73;;;;;;;7.40;88.04;97786.59;7339729;19;20011;-71
2023/03/26 03:41:30;;;;;;;20.88;14.45;;;;;;;7.38;88.52;97777.91;7339777;19;20022;-70
2023/03/26 03:43:58;;;;;;;20.63;14.02;;;;;;;7.39;88.48;97782.25;7339355;19;20060;-71
2023/03/26 03:46:26;;;;;;;21.02;14.40;;;;;;;7.41;88.41;97772.34;7342649;19;20473;-75
2023/03/26 03:48:51;;;;;;;25.70;16.23;;;;;;;7.44;88.78;97774.75;7340664;19;20342;-70
2023/03/26 03:51:21;;;;;;;20.42;14.00;;;;;;;7.45;88.59;97760.50;7340144;19;20023;-70
2023/03/26 03:54:08;;;;;;;22.55;14.32;;;;;;;7.50;88.14;97773.34;7341984;19;20328;-70
2023/03/26 03:56:44;;;;;;;20.90;14.47;;;;;;;7.50;88.30;97773.34;7340723;19;20010;-70
2023/03/26 03:59:14;;;;;;;24.48;14.48;;;;;;;7.53;88.13;97779.22;7340790;19;20100;-71
2023/03/26 04:01:42;;;;;;;22.90;15.05;;;;;;;7.54;87.87;97782.72;7339831;19;20022;-72
2023/03/26 04:04:20;;;;;;;23.80;14.88;;;;;;;7.49;88.03;97782.28;7339265;19;20470;-71
2023/03/26 04:06:54;;;;;;;24.75;15.05;;;;;;;7.51;88.12;97773.22;7342423;19;20018;-71
2023/03/26 04:09:21;;;;;;;25.25;15.45;;;;;;;7.51;88.18;97765.25;7339593;19;20457;-72
2023/03/26 04:11:46;;;;;;;23.50;16.13;;;;;;;7.54;88.08;97769.47;7339154;19;20117;-71
2023/03/26 04:14:27;;;;;;;20.67;14.07;;;;;;;7.62;87.95;97756.34;7338113;19;20014;-71
2023/03/26 04:16:56;;;;;;;24.88;14.32;;;;;;;7.68;87.81;97754.94;7336809;19;20308;-69
2023/03/26 04:19:21;;;;;;;29.80;16.55;;;;;;;7.63;87.68;97753.56;7342490;19;20010;-71
2023/03/26 04:21:48;;;;;;;23.27;14.20;;;;;;;7.68;87.70;97744.34;7345151;19;20403;-71
2023/03/26 04:24:15;;;;;;;27.58;18.05;;;;;;;7.67;87.56;97743.53;7345253;19;20130;-72
2023/03/26 04:27:07;;;;;;;25.70;16.48;;;;;;;7.70;87.58;97743.22;7345259;19;20025;-70
2023/03/26 04:29:45;;;;;;;30.85;17.58;;;;;;;7.79;87.06;97738.94;7345579;19;20006;-70
2023/03/26 04:32:28;;;;;;;27.38;18.17;;;;;;;7.77;87.33;97739.06;7349271;19;20046;-71
2023/03/26 04:34:59;;;;;;;28.33;17.88;;;;;;;7.68;87.29;97731.06;7345513;19;20015;-71
2023/03/26 04:37:27;;;;;;;26.85;16.33;;;;;;;7.71;87.32;97739.59;7342867;19;20014;-69
2023/03/26 04:40:07;;;;;;;31.05;19.38;;;;;;;7.71;87.71;97726.34;7345385;19;20695;-69
2023/03/26 04:42:48;;;;;;;30.90;18.75;;;;;;;7.83;87.14;97722.59;7344670;19;20521;-69
2023/03/26 04:45:22;;;;;;;31.40;20.17;;;;;;;7.78;87.25;97714.22;7344853;19;20462;-72
2023/03/26 04:47:52;;;;;;;29.95;19.92;;;;;;;7.79;87.50;97712.41;7344871;19;20023;-71
2023/03/26 04:50:17;;;;;;;30.70;21.05;;;;;;;7.87;87.17;97715.19;7344279;19;20031;-71
2023/03/26 04:52:42;;;;;;;30.95;22.65;;;;;;;7.90;87.15;97706.97;7344678;19;20034;-71
2023/03/26 04:55:57;;;;;;;33.72;22.35;;;;;;;7.94;87.33;97709.19;7341871;19;20014;-72
2023/03/26 04:58:49;;;;;;;35.28;22.27;;;;;;;8.04;86.81;97703.84;7342100;19;20095;-71
2023/03/26 05:01:15;;;;;;;36.60;22.73;;;;;;;8.07;86.72;97713.38;7341945;19;20489;-71
2023/03/26 05:03:44;;;;;;;38.20;22.67;;;;;;;8.08;86.87;97704.44;7342128;19;20015;-71
2023/03/26 05:06:12;;;;;;;34.53;20.90;;;;;;;8.13;86.36;97700.34;7341931;19;20475;-70
2023/03/26 05:08:37;;;;;;;40.50;22.50;;;;;;;8.14;86.52;97702.03;7346124;19;20011;-70
2023/03/26 05:11:02;;;;;;;35.03;23.67;;;;;;;8.13;86.59;97704.81;7341862;19;20009;-71
2023/03/26 05:13:33;;;;;;;33.92;22.83;;;;;;;8.17;86.31;97696.44;7342647;19;20015;-71
2023/03/26 05:16:04;;;;;;;37.00;21.05;;;;;;;8.12;86.64;97703.19;7345667;19;20019;-71
2023/03/26 05:18:33;;;;;;;36.72;23.65;;;;;;;8.16;86.91;97708.03;7346604;19;20777;-72
2023/03/26 05:20:59;;;;;;;34.65;20.45;;;;;;;8.22;86.77;97701.34;7343145;19;20015;-72
2023/03/26 05:23:26;;;;;;;37.65;22.15;;;;;;;8.29;86.71;97702.44;7342627;19;20014;-70
2023/03/26 05:26:08;;;;;;;30.83;20.73;;;;;;;8.32;86.46;97711.00;7341327;19;20010;-71
2023/03/26 05:28:34;;;;;;;32.97;21.02;;;;;;;8.30;86.53;97710.25;7345621;19;20011;-70
2023/03/26 05:31:21;;;;;;;33.90;21.25;;;;;;;8.34;86.45;97709.03;7341526;19;20017;-71
2023/03/26 05:33:48;;;;;;;30.92;19.60;;;;;;;8.32;86.49;97711.00;7343203;19;20346;-71
2023/03/26 05:36:14;;;;;;;34.92;20.88;;;;;;;8.32;86.59;97710.16;7341749;19;20022;-70
2023/03/26 05:38:48;;;;;;;32.72;19.95;;;;;;;8.31;86.46;97703.13;7342770;19;20010;-71
2023/03/26 05:41:19;;;;;;;31.52;18.27;;;;;;;8.41;86.31;97713.75;7344186;19;20796;-71
2023/03/26 05:43:47;;;;;;;29.35;18.30;;;;;;;8.34;86.42;97694.94;7343039;19;20018;-71
2023/03/26 05:46:25;;;;;;;26.65;17.67;;;;;;;8.37;86.51;97700.75;7342865;19;20014;-71
2023/03/26 05:48:52;;;;;;;26.48;17.75;;;;;;;8.42;86.21;97702.16;7342756;19;20014;-71
2023/03/26 05:51:24;;;;;;;27.85;17.63;;;;;;;8.36;86.26;97687.63;7342453;19;20340;-72
2023/03/26 05:54:19;;;;;;;28.75;16.95;;;;;;;8.36;85.96;97693.78;7343137;19;20024;-72
2023/03/26 05:57:03;;;;;;;27.95;16.25;;;;;;;8.35;85.70;97685.97;7343196;19;20022;-70
2023/03/26 05:59:47;;;;;;;32.97;18.55;;;;;;;8.28;85.96;97690.97;7344400;19;20026;-71
2023/03/26 06:02:32;;;;;;;32.25;19.25;;;;;;;8.20;86.07;97674.09;7343063;19;20015;-72
2023/03/26 06:05:21;;;;;;;35.40;18.98;;;;;;;8.19;86.32;97681.22;7349415;19;20074;-71
2023/03/26 06:07:55;;;;;;;25.38;15.07;;;;;;;8.25;85.99;97666.53;7343785;19;20015;-71
2023/03/26 06:10:22;;;;;;;26.73;15.15;;;;;;;8.11;86.38;97674.97;7342017;19;20740;-69
2023/03/26 06:12:48;;;;;;;27.88;17.35;;;;;;;8.14;86.18;97662.22;7342425;19;20027;-69
2023/03/26 06:15:13;;;;;;;28.35;15.80;;;;;;;7.95;86.55;97660.44;7341823;19;20003;-69
2023/03/26 06:17:58;;;;;;;27.38;16.50;;;;;;;7.88;86.92;97661.16;7343826;19;20025;-69
2023/03/26 06:20:45;;;;;;;32.15;18.23;;;;;;;7.85;87.38;97656.13;7342338;19;20015;-69
2023/03/26 06:23:22;;;;;;;42.75;21.30;;;;;;;7.81;87.48;97649.41;7342254;19;20014;-69
2023/03/26 06:26:14;;;;;;;45.63;23.90;;;;;;;7.78;87.86;97653.22;7339294;19;20017;-70
2023/03/26 06:28:59;;;;;;;44.28;21.75;;;;;;;7.79;88.17;97651.41;7341974;19;20358;-68
2023/03/26 06:31:46;;;;;;;46.97;22.95;;;;;;;7.81;88.23;97644.13;7339045;19;20006;-69
2023/03/26 06:34:23;;;;;;;42.78;22.70;;;;;;;7.76;88.42;97639.25;7339510;19;20014;-69
2023/03/26 06:36:51;;;;;;;43.47;21.55;;;;;;;7.74;88.70;97643.00;7337277;19;20027;-69
2023/03/26 06:39:19;;;;;;;38.38;20.45;;;;;;;7.70;88.95;97636.31;7339014;19;20099;-69
2023/03/26 06:42:16;;;;;;;43.13;22.23;;;;;;;7.71;89.05;97622.06;7337203;19;20038;-69
2023/03/26 06:45:00;;;;;;;41.92;23.20;;;;;;;7.73;89.45;97628.06;7338736;19;20652;-69
2023/03/26 06:47:44;;;;;;;42.80;20.83;;;;;;;7.76;89.45;97625.16;7338422;19;20471;-70
2023/03/26 06:50:45;;;;;;;43.45;21.52;;;;;;;7.77;89.67;97629.47;7338580;19;20013;-72
2023/03/26 06:53:32;;;;;;;39.70;20.33;;;;;;;7.73;89.78;97625.41;7338362;19;20022;-70
2023/03/26 06:56:15;;;;;;;35.60;19.42;;;;;;;7.72;89.63;97619.28;7337632;19;20516;-70
2023/03/26 06:59:16;;;;;;;33.25;17.08;;;;;;;7.71;89.90;97619.41;7338776;19;20022;-70
2023/03/26 07:02:00;;;;;;;30.60;15.70;;;;;;;7.65;89.69;97607.56;7338029;19;20086;-70
2023/03/26 07:04:44;;;;;;;29.52;14.50;;;;;;;7.68;90.12;97611.72;7337547;19;20037;-68
2023/03/26 07:07:28;;;;;;;27.35;15.25;;;;;;;7.70;89.98;97601.81;7338040;19;20040;-69
2023/03/26 07:10:13;;;;;;;30.50;16.27;;;;;;;7.71;90.12;97599.03;7337938;19;20690;-69
2023/03/26 07:13:01;;;;;;;28.52;16.00;;;;;;;7.71;90.60;97588.44;7338836;19;20742;-69
2023/03/26 07:15:44;;;;;;;28.85;16.10;;;;;;;7.69;90.22;97593.03;7339632;19;20014;-70
2023/03/26 07:18:27;;;;;;;29.52;17.33;;;;;;;7.68;89.82;97577.25;7341775;19;20329;-69
2023/03/26 07:20:53;;;;;;;25.25;15.27;;;;;;;7.56;90.27;97585.38;7340243;19;20045;-70
2023/03/26 07:23:20;;;;;;;27.58;15.63;;;;;;;7.54;90.57;97567.94;7342063;19;20015;-70
2023/03/26 07:25:56;;;;;;;29.75;14.35;;;;;;;7.54;91.04;97571.44;7340772;19;20100;-70
2023/03/26 07:28:47;;;;;;;24.20;14.98;;;;;;;7.58;91.07;97564.84;7337127;19;20360;-70
2023/03/26 07:31:55;;;;;;;27.50;16.40;;;;;;;7.61;91.26;97569.88;7337519;19;20028;-67
2023/03/26 07:34:43;;;;;;;25.90;14.45;;;;;;;7.60;90.96;97567.38;7341405;19;20517;-67
2023/03/26 07:37:46;;;;;;;24.83;15.70;;;;;;;7.58;91.02;97562.19;7338846;19;20022;-67
2023/03/26 07:40:56;;;;;;;;;;;;;;;7.69;90.67;97570.97;7338513;19;20089;-66
2023/03/26 07:44:16;;;;;;;23.92;12.90;;;;;;;7.56;91.03;97566.00;7337246;19;19945;-67
2023/03/26 07:46:53;;;;;;;23.95;13.77;;;;;;;7.51;91.34;97555.81;7341967;19;20014;-67
2023/03/26 07:49:43;;;;;;;21.55;12.98;;;;;;;7.48;91.38;97556.06;7337415;19;20025;-68
2023/03/26 07:52:33;;;;;;;24.08;13.18;;;;;;;7.47;91.62;97551.75;7342114;19;20014;-67
2023/03/26 07:56:00;;;;;;;17.45;10.82;;;;;;;7.51;91.72;97553.16;7350393;19;20015;-68
2023/03/26 07:58:43;;;;;;;17.80;10.15;;;;;;;7.55;91.70;97559.03;7350436;19;20066;-67
2023/03/26 08:01:49;;;;;;;17.15;10.77;;;;;;;7.49;92.01;97557.75;7355193;19;20050;-67
2023/03/26 08:04:47;;;;;;;14.30;8.48;;;;;;;7.63;92.06;97561.78;7352007;19;20017;-67
2023/03/26 08:07:55;;;;;;;17.88;10.85;;;;;;;7.52;92.01;97552.19;7353575;19;20014;-66
2023/03/26 08:10:50;;;;;;;15.55;9.88;;;;;;;7.56;92.39;97544.78;7355537;19;20014;-67
2023/03/26 08:13:38;;;;;;;14.57;9.13;;;;;;;7.39;92.55;97551.63;7353874;19;20038;-67
2023/03/26 08:16:06;;;;;;;18.20;10.63;;;;;;;7.25;92.87;97544.94;7351020;19;20010;-67
2023/03/26 08:18:55;;;;;;;15.45;9.23;;;;;;;7.29;92.98;97521.66;7346481;19;20078;-66
2023/03/26 08:21:34;;;;;;;15.85;10.68;;;;;;;7.36;93.34;97529.84;7352095;19;20429;-66
2023/03/26 08:24:04;;;;;;;15.55;10.30;;;;;;;7.27;93.69;97535.03;7357449;19;20068;-67
2023/03/26 08:26:44;;;;;;;18.63;10.85;;;;;;;7.33;93.88;97536.31;7356311;19;20006;-65
2023/03/26 08:29:53;;;;;;;13.82;9.85;;;;;;;7.25;93.77;97533.50;7355534;19;20010;-66
2023/03/26 08:32:20;;;;;;;12.77;8.88;;;;;;;7.30;94.18;97523.31;7349365;19;20007;-66
2023/03/26 08:34:48;;;;;;;15.55;10.52;;;;;;;7.22;94.31;97521.34;7346551;19;20026;-66
2023/03/26 08:37:18;;;;;;;14.10;9.65;;;;;;;7.20;94.45;97518.03;7341731;19;20017;-70
2023/03/26 08:39:45;;;;;;;13.45;9.35;;;;;;;7.13;94.73;97516.91;7344452;19;20035;-66
2023/03/26 08:42:23;;;;;;;13.95;9.55;;;;;;;7.17;94.65;97517.47;7344204;19;20496;-67
2023/03/26 08:45:05;;;;;;;10.63;7.97;;;;;;;7.26;94.86;97522.75;7347422;19;20417;-68
2023/03/26 08:47:51;;;;;;;10.07;6.60;;;;;;;7.34;95.18;97503.50;7344203;19;20014;-66
2023/03/26 08:50:20;;;;;;;7.40;5.32;;;;;;;7.22;94.95;97515.25;7343065;19;20494;-67
2023/03/26 08:53:13;;;;;;;7.20;5.40;;;;;;;7.17;95.04;97506.88;7344169;19;20018;-66
2023/03/26 08:55:50;;;;;;;8.73;6.50;;;;;;;6.96;95.13;97500.88;7343063;19;21071;-68
2023/03/26 08:58:44;;;;;;;7.60;5.22;;;;;;;6.94;95.35;97495.72;7342693;19;20026;-68
2023/03/26 09:01:31;;;;;;;8.15;5.85;;;;;;;6.90;95.24;97495.16;7344175;19;20018;-67
2023/03/26 09:04:20;;;;;;;7.80;5.78;;;;;;;7.05;95.77;97492.09;7348482;19;20019;-66
2023/03/26 09:07:25;;;;;;;4.68;3.70;;;;;;;7.08;95.55;97481.22;7351744;19;20074;-65
2023/03/26 09:10:22;;;;;;;6.72;5.25;;;;;;;6.96;95.60;97493.78;7351451;19;20103;-68
2023/03/26 09:12:56;;;;;;;6.35;5.20;;;;;;;6.89;95.78;97493.47;7348705;19;20006;-67
2023/03/26 09:15:41;;;;;;;8.27;5.68;;;;;;;6.82;95.72;97495.03;7350319;19;20039;-66
2023/03/26 09:18:35;;;;;;;6.65;5.13;;;;;;;6.86;96.11;97483.19;7345157;19;20042;-66
2023/03/26 09:21:24;;;;;;;9.30;6.13;;;;;;;6.78;95.99;97488.31;7349288;19;20041;-71
2023/03/26 09:24:42;;;;;;;10.25;5.63;;;;;;;6.86;96.13;97488.47;7347967;19;20022;-68
2023/03/26 09:27:33;;;;;;;12.60;5.65;;;;;;;6.87;96.27;97482.22;7349643;19;20022;-67
2023/03/26 09:30:15;;;;;;;10.60;6.10;;;;;;;6.90;96.27;97478.41;7346058;19;20775;-67
2023/03/26 09:33:02;;;;;;;7.00;4.82;;;;;;;6.93;96.63;97479.00;7344412;19;20030;-69
2023/03/26 09:35:46;;;;;;;7.00;4.95;;;;;;;6.89;96.53;97467.00;7343556;19;20015;-73
2023/03/26 09:38:31;;;;;;;8.13;5.18;;;;;;;6.85;96.83;97470.06;7350051;19;20025;-70
2023/03/26 09:41:05;;;;;;;11.40;6.63;;;;;;;6.88;96.59;97465.31;7347682;19;20014;-70
2023/03/26 09:43:37;;;;;;;9.40;6.35;;;;;;;6.86;96.74;97456.69;7348440;19;20060;-70
2023/03/26 09:46:13;;;;;;;10.00;6.38;;;;;;;6.86;96.88;97456.69;7352539;19;20018;-72
2023/03/26 09:48:58;;;;;;;10.32;6.38;;;;;;;6.95;96.82;97446.22;7345278;19;20011;-72
2023/03/26 09:51:24;;;;;;;14.05;6.80;;;;;;;6.92;97.06;97456.13;7349794;19;20376;-70
2023/03/26 09:54:02;;;;;;;9.55;6.53;;;;;;;6.93;97.11;97452.50;7342826;19;20544;-73
2023/03/26 09:56:49;;;;;;;9.23;6.50;;;;;;;6.83;97.26;97456.97;7342907;19;20351;-74
2023/03/26 09:59:35;;;;;;;11.15;6.97;;;;;;;6.90;97.42;97446.63;7347530;19;20003;-72
2023/03/26 10:02:35;;;;;;;11.25;6.43;;;;;;;6.92;97.32;97450.81;7346328;19;20048;-71
2023/03/26 10:05:21;;;;;;;10.52;7.20;;;;;;;6.89;97.43;97451.09;7344466;19;20010;-70
2023/03/26 10:08:00;;;;;;;11.10;7.05;;;;;;;6.89;97.62;97444.97;7347747;19;20488;-72
2023/03/26 10:10:46;;;;;;;10.02;7.13;;;;;;;6.92;97.90;97442.88;7345500;19;20320;-72
2023/03/26 10:13:38;;;;;;;11.98;7.40;;;;;;;6.92;97.91;97447.34;7343736;19;20023;-72
2023/03/26 10:16:07;;;;;;;13.30;7.97;;;;;;;6.98;97.85;97443.31;7340862;19;20014;-71
2023/03/26 10:19:20;;;;;;;10.77;7.65;;;;;;;7.03;97.89;97441.91;7343316;19;20360;-72
2023/03/26 10:22:09;;;;;;;9.77;7.22;;;;;;;7.05;98.03;97439.09;7346157;19;20384;-72
2023/03/26 10:25:09;;;;;;;13.13;8.02;;;;;;;7.14;98.16;97439.09;7344339;19;20035;-73
2023/03/26 10:28:03;;;;;;;11.23;7.57;;;;;;;7.13;98.02;97431.28;7343459;19;20021;-71
2023/03/26 10:30:30;;;;;;;13.35;8.98;;;;;;;7.18;98.02;97439.66;7341845;19;20014;-70
2023/03/26 10:33:22;;;;;;;11.20;7.70;;;;;;;7.24;98.27;97439.06;7342308;19;20011;-72
2023/03/26 10:36:25;;;;;;;7.93;4.70;;;;;;;7.35;98.32;97435.41;7343027;19;20014;-72
2023/03/26 10:39:10;;;;;;;15.65;9.85;;;;;;;7.21;98.32;97436.72;7349428;19;20748;-72
2023/03/26 10:42:00;;;;;;;14.05;9.60;;;;;;;7.24;98.29;97429.31;7343822;19;20018;-72
2023/03/26 10:44:32;;;;;;;16.38;10.93;;;;;;;7.29;98.36;97432.38;7344772;19;20074;-69
2023/03/26 10:47:17;;;;;;;16.83;10.18;;;;;;;7.50;98.63;97429.53;7346828;19;20365;-69
2023/03/26 10:50:01;;;;;;;16.55;10.80;;;;;;;7.33;98.57;97422.34;7344424;19;20027;-70
2023/03/26 10:52:42;;;;;;;19.20;12.68;;;;;;;7.25;98.53;97420.38;7343211;19;20022;-70
2023/03/26 10:55:38;;;;;;;22.13;13.75;;;;;;;7.32;98.69;97425.13;7341121;19;20007;-70
2023/03/26 10:58:26;;;;;;;21.40;13.35;;;;;;;7.40;98.59;97426.06;7341707;19;20772;-70
2023/03/26 11:01:05;;;;;;;25.35;15.52;;;;;;;7.35;98.59;97425.66;7341853;19;20334;-70
2023/03/26 11:03:50;;;;;;;33.78;18.85;;;;;;;7.27;98.48;97415.78;7341161;19;20014;-70
2023/03/26 11:06:44;;;;;;;26.88;14.93;;;;;;;7.35;98.75;97433.59;7345242;19;20007;-72
2023/03/26 11:09:49;;;;;;;34.45;22.55;;;;;;;7.37;98.40;97420.22;7341616;19;20018;-70
2023/03/26 11:12:20;;;;;;;36.00;19.75;;;;;;;7.26;98.60;97418.56;7340871;19;20007;-72
2023/03/26 11:14:56;;;;;;;28.65;19.10;;;;;;;7.24;98.58;97416.06;7340530;19;20010;-72
2023/03/26 11:17:42;;;;;;;32.33;19.55;;;;;;;7.13;98.66;97410.06;7340026;19;20018;-69
2023/03/26 11:20:16;;;;;;;36.28;20.90;;;;;;;7.14;98.77;97406.44;7346306;19;20030;-69
2023/03/26 11:23:02;;;;;;;36.15;21.65;;;;;;;7.12;98.80;97414.53;7341971;19;20026;-67
2023/03/26 11:25:58;;;;;;;28.42;15.80;;;;;;;7.39;98.78;97421.75;7343114;19;20019;-68
2023/03/26 11:28:50;;;;;;;42.97;27.88;;;;;;;7.13;98.84;97408.28;7338530;19;20018;-67
2023/03/26 11:31:28;;;;;;;34.53;18.45;;;;;;;7.32;98.89;97415.34;7341115;19;20466;-65
2023/03/26 11:33:59;;;;;;;38.90;22.70;;;;;;;7.08;98.80;97413.19;7338097;19;20018;-66
2023/03/26 11:36:31;;;;;;;34.75;19.20;;;;;;;7.23;98.94;97408.25;7336792;19;20085;-64
2023/03/26 11:39:01;;;;;;;48.10;25.58;;;;;;;7.20;98.62;97406.75;7337966;19;20072;-64
2023/03/26 11:41:33;;;;;;;38.35;22.00;;;;;;;7.22;98.93;97415.34;7338010;19;20014;-70
2023/03/26 11:44:38;;;;;;;38.30;21.02;;;;;;;7.23;98.83;97419.69;7339229;19;20003;-65
2023/03/26 11:47:09;;;;;;;37.05;18.83;;;;;;;7.09;98.77;97416.66;7341867;19;20085;-65
2023/03/26 11:49:34;;;;;;;46.15;23.48;;;;;;;7.11;99.06;97398.81;7341414;19;20074;-65
2023/03/26 11:52:01;;;;;;;42.03;21.98;;;;;;;7.20;98.91;97417.34;7340780;19;20026;-66
2023/03/26 11:54:28;;;;;;;41.55;23.83;;;;;;;7.16;99.06;97412.44;7340541;19;20023;-65
2023/03/26 11:57:03;;;;;;;48.60;28.33;;;;;;;7.20;98.92;97405.91;7337468;19;20410;-65
2023/03/26 11:59:42;;;;;;;39.63;24.40;;;;;;;7.21;98.92;97413.72;7339939;19;20055;-63
2023/03/26 12:02:13;;;;;;;28.60;16.92;;;;;;;7.17;99.03;97408.81;7341214;19;20026;-64
2023/03/26 12:04:44;;;;;;;43.25;21.33;;;;;;;7.21;99.00;97403.13;7339995;19;20397;-64
2023/03/26 12:07:21;;;;;;;38.50;21.73;;;;;;;7.23;99.13;97406.44;7344483;19;20018;-64
2023/03/26 12:09:52;;;;;;;40.03;22.60;;;;;;;7.20;99.10;97403.25;7344848;19;20431;-64
2023/03/26 12:12:21;;;;;;;36.50;22.45;;;;;;;7.14;99.00;97401.16;7341735;19;20469;-65
2023/03/26 12:14:48;;;;;;;43.45;24.40;;;;;;;7.18;99.20;97402.56;7340520;19;20018;-72
2023/03/26 12:17:31;;;;;;;41.33;21.48;;;;;;;7.28;99.13;97393.59;7341599;19;20029;-70